Time;durP1;ratioP1;P1;durP2;ratioP2;P2;SDS_P1;SDS_P2;PMS_P1;PMS_P2;Temp;Humidity;BMP_temperature;BMP_pressure;BME280_temperature;BME280_humidity;BME280_pressure;Samples;Min_cycle;Max_cycle;Signal;HPM_P1;HPM_P2
2020/12/02 00:00:29;;;;;;;118.90;35.17;;;-6.70;99.90;;;;;;4350285;28;658582;-59
2020/12/02 00:03:19;;;;;;;108.93;33.13;;;-6.80;99.90;;;;;;4380216;28;658297;-60
2020/12/02 00:06:06;;;;;;;104.17;31.43;;;-6.90;99.90;;;;;;4349825;28;660757;-58
2020/12/02 00:08:57;;;;;;;106.73;33.07;;;-6.90;99.90;;;;;;4377949;28;658860;-58
2020/12/02 00:11:46;;;;;;;106.37;32.53;;;-6.90;99.90;;;;;;4339328;28;660099;-59
2020/12/02 00:14:33;;;;;;;105.10;33.33;;;-6.90;99.90;;;;;;4378080;28;658927;-58
2020/12/02 00:17:21;;;;;;;87.73;28.97;;;-6.90;99.90;;;;;;4359210;28;659029;-59
2020/12/02 00:20:08;;;;;;;98.47;31.10;;;-6.90;99.90;;;;;;4378852;28;659463;-60
2020/12/02 00:22:55;;;;;;;93.07;30.30;;;-6.90;99.90;;;;;;4360376;28;658126;-60
2020/12/02 00:25:42;;;;;;;95.60;31.90;;;-7.00;99.90;;;;;;4379184;28;658057;-58
2020/12/02 00:28:30;;;;;;;102.63;32.88;;;-7.00;99.90;;;;;;4435606;28;658487;-60
2020/12/02 00:31:18;;;;;;;105.40;32.37;;;-7.10;99.90;;;;;;4458916;28;659680;-58
2020/12/02 00:34:05;;;;;;;93.77;31.57;;;-7.10;99.90;;;;;;4438506;28;660932;-59
2020/12/02 00:36:52;;;;;;;94.07;29.50;;;-7.10;99.90;;;;;;4464350;28;658412;-58
2020/12/02 00:39:39;;;;;;;90.20;28.43;;;-7.10;99.90;;;;;;4465818;28;657768;-58
2020/12/02 00:42:26;;;;;;;85.90;27.73;;;-7.20;99.90;;;;;;4431939;28;657583;-58
2020/12/02 00:45:14;;;;;;;91.82;31.25;;;-7.20;99.90;;;;;;4451539;28;658003;-58
2020/12/02 00:48:01;;;;;;;107.57;31.90;;;-7.20;99.90;;;;;;4445591;28;658186;-59
2020/12/02 00:50:48;;;;;;;105.23;32.63;;;-7.20;99.90;;;;;;4457706;28;659023;-58
2020/12/02 00:53:35;;;;;;;103.63;30.87;;;-7.20;99.90;;;;;;4447463;28;658531;-59
2020/12/02 00:56:22;;;;;;;98.87;32.83;;;-7.20;99.90;;;;;;4456970;28;659455;-58
2020/12/02 00:59:14;;;;;;;107.32;31.83;;;-7.20;99.90;;;;;;4441599;28;657625;-59
2020/12/02 01:02:06;;;;;;;100.93;30.83;;;-7.20;99.90;;;;;;4438102;28;660017;-58
2020/12/02 01:04:53;;;;;;;101.03;30.93;;;-7.20;99.90;;;;;;4438250;28;658659;-58
2020/12/02 01:07:40;;;;;;;94.93;31.00;;;-7.20;99.90;;;;;;4438359;28;658740;-58
2020/12/02 01:10:27;;;;;;;103.32;31.90;;;-7.30;99.90;;;;;;4458068;28;658792;-59
2020/12/02 01:13:14;;;;;;;109.87;32.10;;;-7.30;99.90;;;;;;4439453;28;658673;-59
2020/12/02 01:16:03;;;;;;;101.30;33.50;;;-7.30;99.90;;;;;;4456908;28;661601;-58
2020/12/02 01:18:51;;;;;;;102.25;32.80;;;-7.30;99.90;;;;;;4431806;28;658930;-58
2020/12/02 01:21:42;;;;;;;103.18;33.80;;;-7.30;99.90;;;;;;4457400;28;659040;-58
2020/12/02 01:24:33;;;;;;;99.07;32.03;;;-7.30;99.90;;;;;;4422969;28;659792;-58
2020/12/02 01:27:22;;;;;;;99.50;32.20;;;-7.30;99.90;;;;;;4431753;28;658325;-58
2020/12/02 01:30:09;;;;;;;97.33;31.60;;;-7.30;99.90;;;;;;4439990;28;658809;-59
2020/12/02 01:32:57;;;;;;;96.82;31.88;;;-7.40;99.90;;;;;;4456948;28;658044;-59
2020/12/02 01:35:46;;;;;;;100.40;32.00;;;-7.40;99.90;;;;;;4458083;28;657718;-58
2020/12/02 01:38:36;;;;;;;96.27;30.57;;;-7.40;99.90;;;;;;4434204;28;658201;-58
2020/12/02 01:41:23;;;;;;;91.55;31.10;;;-7.50;99.90;;;;;;4439877;28;657631;-59
2020/12/02 01:44:11;;;;;;;104.72;32.60;;;-7.50;99.90;;;;;;4439795;28;657847;-58
2020/12/02 01:47:03;;;;;;;100.77;31.80;;;-7.50;99.90;;;;;;4452160;28;659568;-58
2020/12/02 01:49:52;;;;;;;124.70;40.30;;;-7.50;99.90;;;;;;4415033;28;658561;-59
2020/12/02 01:53:02;;;;;;;123.23;37.50;;;-7.50;99.90;;;;;;4447456;28;658665;-59
2020/12/02 01:55:52;;;;;;;107.97;32.60;;;-7.40;99.90;;;;;;4437125;28;659927;-58
2020/12/02 01:58:47;;;;;;;106.20;33.63;;;-7.50;99.90;;;;;;4419041;28;658290;-59
2020/12/02 02:01:43;;;;;;;102.38;33.35;;;-7.50;99.90;;;;;;4431201;28;658624;-59
2020/12/02 02:04:45;;;;;;;100.20;32.47;;;-7.50;99.90;;;;;;4418679;28;658666;-58
2020/12/02 02:07:32;;;;;;;93.43;30.70;;;-7.50;99.90;;;;;;4410937;28;659429;-57
2020/12/02 02:10:22;;;;;;;89.70;30.30;;;-7.60;99.90;;;;;;4460338;28;659520;-58
2020/12/02 02:13:21;;;;;;;86.10;28.47;;;-7.60;99.90;;;;;;4455754;28;657748;-58
2020/12/02 02:16:08;;;;;;;91.77;28.40;;;-7.60;99.90;;;;;;4431123;28;658299;-58
2020/12/02 02:18:55;;;;;;;82.38;28.58;;;-7.70;99.90;;;;;;4436963;28;658193;-58
2020/12/02 02:21:42;;;;;;;92.63;29.57;;;-7.70;99.90;;;;;;4462125;28;658459;-58
2020/12/02 02:24:29;;;;;;;86.60;28.90;;;-7.60;99.90;;;;;;4435883;28;658945;-59
2020/12/02 02:27:19;;;;;;;93.57;29.73;;;-7.60;99.90;;;;;;4466534;28;657217;-58
2020/12/02 02:30:06;;;;;;;90.70;29.57;;;-7.60;99.90;;;;;;4440819;28;657898;-57
2020/12/02 02:32:53;;;;;;;87.67;29.63;;;-7.60;99.90;;;;;;4469590;28;659123;-57
2020/12/02 02:35:40;;;;;;;89.87;29.00;;;-7.70;99.90;;;;;;4444372;28;657690;-59
2020/12/02 02:38:27;;;;;;;80.90;27.57;;;-7.70;99.90;;;;;;4463296;28;659276;-57
2020/12/02 02:41:16;;;;;;;94.07;29.73;;;-7.80;99.90;;;;;;4469318;28;657453;-59
2020/12/02 02:44:04;;;;;;;85.00;29.87;;;-7.80;99.90;;;;;;4465012;28;658949;-58
2020/12/02 02:46:54;;;;;;;90.47;28.03;;;-7.80;99.90;;;;;;4450540;28;657859;-58
2020/12/02 02:49:41;;;;;;;79.03;26.67;;;-7.80;99.90;;;;;;4445814;28;658582;-58
2020/12/02 02:52:28;;;;;;;83.77;27.03;;;-7.80;99.90;;;;;;4462066;28;658021;-58
2020/12/02 02:55:17;;;;;;;84.10;25.50;;;-7.80;99.90;;;;;;4450892;28;657604;-58
2020/12/02 02:58:05;;;;;;;85.93;28.10;;;-7.80;99.90;;;;;;4460695;28;657673;-59
2020/12/02 03:00:53;;;;;;;81.93;27.87;;;-7.80;99.90;;;;;;4472790;28;658005;-58
2020/12/02 03:03:41;;;;;;;81.80;28.42;;;-7.90;99.90;;;;;;4450647;28;657830;-58
2020/12/02 03:06:28;;;;;;;79.83;25.33;;;-7.90;99.90;;;;;;4464332;28;659213;-58
2020/12/02 03:09:15;;;;;;;84.38;27.20;;;-7.90;99.90;;;;;;4442673;28;658221;-59
2020/12/02 03:12:02;;;;;;;86.50;27.60;;;-7.90;99.90;;;;;;4464556;28;659061;-57
2020/12/02 03:14:49;;;;;;;96.50;31.83;;;-8.00;99.90;;;;;;4468506;28;657435;-59
2020/12/02 03:17:37;;;;;;;89.83;30.73;;;-8.00;99.90;;;;;;4459626;28;657789;-57
2020/12/02 03:20:27;;;;;;;93.55;31.05;;;-8.00;99.90;;;;;;4455007;28;658521;-59
2020/12/02 03:23:14;;;;;;;98.93;31.60;;;-8.00;99.90;;;;;;4441026;28;658493;-59
2020/12/02 03:26:01;;;;;;;94.40;29.83;;;-8.00;99.90;;;;;;4473319;28;658098;-58
2020/12/02 03:28:48;;;;;;;111.87;35.17;;;-7.90;99.90;;;;;;4462160;28;658748;-58
2020/12/02 03:31:36;;;;;;;105.40;33.55;;;-8.00;99.90;;;;;;4448533;28;658908;-58
2020/12/02 03:34:24;;;;;;;101.70;32.57;;;-8.10;99.90;;;;;;4460321;28;659274;-57
2020/12/02 03:37:11;;;;;;;84.37;27.27;;;-8.10;99.90;;;;;;4442892;28;658774;-58
2020/12/02 03:39:59;;;;;;;91.07;30.10;;;-8.10;99.90;;;;;;4469250;28;659026;-58
2020/12/02 03:42:46;;;;;;;115.00;35.63;;;-8.20;99.90;;;;;;4445435;28;659204;-58
2020/12/02 03:45:33;;;;;;;99.50;32.63;;;-8.20;99.90;;;;;;4461792;28;659897;-58
2020/12/02 03:48:20;;;;;;;131.00;34.87;;;-8.30;99.90;;;;;;4450170;28;657896;-59
2020/12/02 03:51:08;;;;;;;101.33;32.53;;;-8.20;99.90;;;;;;4460674;28;660029;-58
2020/12/02 03:53:55;;;;;;;120.57;36.30;;;-8.20;99.90;;;;;;4448592;28;658726;-58
2020/12/02 03:56:42;;;;;;;122.50;37.30;;;-8.40;99.90;;;;;;4460381;28;660031;-58
2020/12/02 03:59:29;;;;;;;124.70;37.60;;;-8.40;99.90;;;;;;4463462;28;658896;-58
2020/12/02 04:02:16;;;;;;;115.00;36.20;;;-8.40;99.90;;;;;;4443689;28;660130;-57
2020/12/02 04:05:04;;;;;;;124.87;38.20;;;-8.40;99.90;;;;;;4461784;28;659078;-56
2020/12/02 04:07:52;;;;;;;149.53;41.53;;;-8.50;99.90;;;;;;4444782;28;660165;-58
2020/12/02 04:10:39;;;;;;;142.97;41.80;;;-8.40;99.90;;;;;;4453538;28;658855;-58
2020/12/02 04:13:26;;;;;;;119.13;37.70;;;-8.30;99.90;;;;;;4448350;28;659610;-58
2020/12/02 04:16:13;;;;;;;126.40;39.73;;;-8.30;99.90;;;;;;4460229;28;659877;-57
2020/12/02 04:19:00;;;;;;;128.97;38.00;;;-8.20;99.90;;;;;;4447851;28;658871;-58
2020/12/02 04:21:47;;;;;;;134.53;39.47;;;-8.10;99.90;;;;;;4453302;28;659929;-57
2020/12/02 04:24:35;;;;;;;106.53;34.70;;;-8.00;99.90;;;;;;4448412;28;658869;-58
2020/12/02 04:27:21;;;;;;;94.83;27.77;;;-7.80;99.90;;;;;;4436228;28;659252;-58
2020/12/02 04:30:09;;;;;;;113.63;31.03;;;-7.60;99.90;;;;;;4463775;28;657484;-58
2020/12/02 04:32:56;;;;;;;114.23;33.43;;;-7.30;99.90;;;;;;4447531;28;659380;-58
2020/12/02 04:35:43;;;;;;;100.50;28.77;;;-7.10;99.90;;;;;;4457845;28;658614;-59
2020/12/02 04:38:30;;;;;;;95.97;29.03;;;-6.90;99.90;;;;;;4447838;28;658894;-59
2020/12/02 04:41:18;;;;;;;105.90;31.97;;;-6.70;99.90;;;;;;4462102;28;659109;-58
2020/12/02 04:44:05;;;;;;;108.00;31.13;;;-6.50;99.90;;;;;;4447899;28;658579;-59
2020/12/02 04:46:54;;;;;;;107.17;32.53;;;-6.30;99.90;;;;;;4466701;28;660258;-58
2020/12/02 04:49:41;;;;;;;106.07;30.07;;;-6.20;99.90;;;;;;4446304;28;658641;-58
2020/12/02 04:52:28;;;;;;;99.30;29.60;;;-6.00;99.90;;;;;;4461228;28;659573;-58
2020/12/02 04:55:15;;;;;;;108.47;29.17;;;-5.90;99.90;;;;;;4448806;28;657871;-59
2020/12/02 04:58:04;;;;;;;107.63;30.70;;;-5.80;99.90;;;;;;4464851;28;659415;-59
2020/12/02 05:00:51;;;;;;;106.80;32.03;;;-5.70;99.90;;;;;;4447426;28;660241;-58
2020/12/02 05:03:50;;;;;;;85.25;27.63;;;-5.60;99.90;;;;;;4466936;28;659233;-58
2020/12/02 05:06:39;;;;;;;106.40;32.23;;;-5.50;99.90;;;;;;4430304;28;658195;-58
2020/12/02 05:09:26;;;;;;;116.00;32.97;;;-5.30;99.90;;;;;;4443405;28;660151;-58
2020/12/02 05:12:15;;;;;;;111.57;34.43;;;-5.30;99.90;;;;;;4460436;28;659159;-58
2020/12/02 05:15:24;;;;;;;113.10;33.97;;;-5.20;99.90;;;;;;4446230;28;659558;-57
2020/12/02 05:18:17;;;;;;;102.27;29.10;;;-5.10;99.90;;;;;;4417144;28;659079;-57
2020/12/02 05:21:18;;;;;;;109.37;29.17;;;-5.00;99.90;;;;;;4433222;28;658672;-60
2020/12/02 05:24:07;;;;;;;110.07;32.60;;;-5.00;99.90;;;;;;4422058;28;659334;-59
2020/12/02 05:26:54;;;;;;;129.63;34.40;;;-4.90;99.90;;;;;;4451153;28;659177;-59
2020/12/02 05:29:47;;;;;;;111.57;34.03;;;-4.80;99.90;;;;;;4456935;28;658650;-59
2020/12/02 05:32:36;;;;;;;109.63;33.23;;;-4.80;99.90;;;;;;4459541;28;658269;-60
2020/12/02 05:35:23;;;;;;;116.63;33.90;;;-4.70;99.90;;;;;;4460765;28;660055;-58
2020/12/02 05:38:10;;;;;;;83.63;25.63;;;-4.70;99.90;;;;;;4435060;28;658551;-59
2020/12/02 05:40:57;;;;;;;95.40;28.83;;;-4.60;99.90;;;;;;4453908;28;659905;-58
2020/12/02 05:43:47;;;;;;;113.22;32.55;;;-4.60;99.90;;;;;;4450266;28;657840;-59
2020/12/02 05:46:39;;;;;;;112.30;32.00;;;-4.60;99.90;;;;;;4435525;28;658564;-59
2020/12/02 05:49:40;;;;;;;123.47;35.13;;;-4.60;99.90;;;;;;4437184;28;660840;-59
2020/12/02 05:52:30;;;;;;;102.37;31.13;;;-4.60;99.90;;;;;;4405317;28;660592;-58
2020/12/02 05:55:22;;;;;;;87.05;26.38;;;-4.60;99.90;;;;;;4428715;28;660358;-58
2020/12/02 05:58:12;;;;;;;103.00;31.27;;;-4.40;99.90;;;;;;4439597;28;658891;-60
2020/12/02 06:01:00;;;;;;;108.05;30.50;;;-4.40;99.90;;;;;;4431444;28;658443;-59
2020/12/02 06:03:48;;;;;;;110.37;32.93;;;-4.40;99.90;;;;;;4459103;28;659261;-58
2020/12/02 06:06:36;;;;;;;103.57;32.13;;;-4.40;99.90;;;;;;4437782;28;658767;-60
2020/12/02 06:09:37;;;;;;;109.43;33.07;;;-4.50;99.90;;;;;;4460215;28;659659;-60
2020/12/02 06:12:25;;;;;;;120.43;33.53;;;-4.50;99.90;;;;;;4421337;28;658905;-59
2020/12/02 06:15:19;;;;;;;103.37;33.20;;;-4.50;99.90;;;;;;4458775;28;659836;-58
2020/12/02 06:18:13;;;;;;;103.03;30.93;;;-4.50;99.90;;;;;;4418428;28;659172;-58
2020/12/02 06:21:01;;;;;;;97.67;31.23;;;-4.50;99.90;;;;;;4422000;28;659072;-59
2020/12/02 06:23:52;;;;;;;105.87;32.90;;;-4.50;99.90;;;;;;4462085;28;657677;-59
2020/12/02 06:26:40;;;;;;;121.60;33.63;;;-4.40;99.90;;;;;;4435512;28;658568;-58
2020/12/02 06:29:29;;;;;;;96.63;29.90;;;-4.50;99.90;;;;;;4436920;28;659312;-58
2020/12/02 06:32:18;;;;;;;103.83;30.17;;;-4.40;99.90;;;;;;4444400;28;658329;-59
2020/12/02 06:35:12;;;;;;;106.60;31.70;;;-4.40;99.90;;;;;;4448120;28;658630;-59
2020/12/02 06:38:13;;;;;;;104.07;31.25;;;-4.40;99.90;;;;;;4421712;28;659430;-60
2020/12/02 06:41:31;;;;;;;112.47;34.93;;;-4.40;99.90;;;;;;4418658;28;659918;-59
2020/12/02 06:44:59;;;;;;;101.23;31.40;;;-4.30;99.90;;;;;;4444899;28;658500;-59
2020/12/02 06:48:01;;;;;;;109.47;31.50;;;-4.40;99.90;;;;;;4416435;28;659905;-58
2020/12/02 06:50:48;;;;;;;102.33;30.13;;;-4.30;99.90;;;;;;4442315;28;658887;-59
2020/12/02 06:53:35;;;;;;;107.10;32.53;;;-4.40;99.90;;;;;;4441698;28;658485;-59
2020/12/02 06:56:22;;;;;;;116.03;33.17;;;-4.30;99.90;;;;;;4464996;28;659508;-59
2020/12/02 06:59:10;;;;;;;114.68;33.63;;;-4.40;99.90;;;;;;4453142;28;658438;-60
2020/12/02 07:02:04;;;;;;;103.47;29.30;;;-4.40;99.90;;;;;;4462582;28;659850;-59
2020/12/02 07:04:51;;;;;;;138.50;41.57;;;-4.40;99.90;;;;;;4448975;28;658720;-58
2020/12/02 07:07:38;;;;;;;71.93;21.50;;;-4.40;99.90;;;;;;4462415;28;658752;-59
2020/12/02 07:10:25;;;;;;;87.17;25.70;;;-4.30;99.90;;;;;;4443279;28;657461;-59
2020/12/02 07:13:15;;;;;;;100.83;31.83;;;-4.20;99.90;;;;;;4469510;28;659030;-58
2020/12/02 07:16:08;;;;;;;92.90;28.87;;;-4.20;99.90;;;;;;4443595;28;659358;-58
2020/12/02 07:18:57;;;;;;;95.72;29.92;;;-4.20;99.90;;;;;;4419596;28;658900;-59
2020/12/02 07:21:47;;;;;;;84.10;26.83;;;-4.10;99.90;;;;;;4448430;28;657567;-60
2020/12/02 07:24:39;;;;;;;92.37;29.53;;;-4.00;99.90;;;;;;4463613;28;657749;-58
2020/12/02 07:27:26;;;;;;;90.47;26.43;;;-4.10;99.90;;;;;;4418499;27;658915;-58
2020/12/02 07:30:29;;;;;;;83.40;25.37;;;-4.00;99.90;;;;;;4467234;28;658222;-60
2020/12/02 07:33:24;;;;;;;88.17;25.67;;;-4.00;99.90;;;;;;4425619;28;658565;-59
2020/12/02 07:36:14;;;;;;;70.93;23.10;;;-4.00;99.90;;;;;;4431804;28;658541;-59
2020/12/02 07:39:04;;;;;;;67.03;20.90;;;-3.90;99.90;;;;;;4445492;28;658747;-58
2020/12/02 07:41:57;;;;;;;78.03;24.73;;;-4.00;99.90;;;;;;4449708;28;657617;-58
2020/12/02 07:44:49;;;;;;;79.95;26.35;;;-3.90;99.90;;;;;;4416934;28;657962;-60
2020/12/02 07:47:36;;;;;;;74.27;24.77;;;-3.90;99.90;;;;;;4445087;28;659651;-58
2020/12/02 07:50:28;;;;;;;88.50;28.07;;;-3.90;99.90;;;;;;4466913;28;659640;-59
2020/12/02 07:53:18;;;;;;;85.90;28.50;;;-3.90;99.90;;;;;;4419591;28;659631;-59
2020/12/02 07:56:07;;;;;;;81.93;24.50;;;-3.80;99.90;;;;;;4431973;28;657624;-60
2020/12/02 07:58:54;;;;;;;82.03;26.40;;;-3.80;99.90;;;;;;4459924;28;659158;-58
2020/12/02 08:02:06;;;;;;;86.40;28.30;;;-3.80;99.90;;;;;;4449682;28;659144;-59
2020/12/02 08:04:55;;;;;;;86.03;28.53;;;-3.80;99.90;;;;;;4441954;28;658272;-59
2020/12/02 08:07:59;;;;;;;92.57;28.83;;;-3.80;99.90;;;;;;4432518;28;658502;-60
2020/12/02 08:10:48;;;;;;;106.47;32.10;;;-3.80;99.90;;;;;;4429282;28;657475;-59
2020/12/02 08:13:36;;;;;;;101.47;34.10;;;-3.80;99.90;;;;;;4446905;28;658710;-59
2020/12/02 08:16:25;;;;;;;92.03;30.30;;;-3.70;99.90;;;;;;4452855;28;658862;-59
2020/12/02 08:19:12;;;;;;;88.77;32.67;;;-3.60;99.90;;;;;;4441403;28;659286;-60
2020/12/02 08:21:59;;;;;;;99.57;33.27;;;-3.50;99.90;;;;;;4457424;28;658312;-61
2020/12/02 08:24:47;;;;;;;76.63;25.27;;;-3.50;99.90;;;;;;4469435;28;657661;-58
2020/12/02 08:27:35;;;;;;;95.20;30.50;;;-3.50;99.90;;;;;;4467251;28;657506;-59
2020/12/02 08:30:23;;;;;;;113.37;35.30;;;-3.40;99.90;;;;;;4441910;28;658507;-59
2020/12/02 08:33:13;;;;;;;94.93;30.30;;;-3.40;99.90;;;;;;4441378;28;659614;-58
2020/12/02 08:36:07;;;;;;;128.73;42.23;;;-3.30;99.90;;;;;;4443503;28;659363;-60
2020/12/02 08:38:54;;;;;;;284.75;102.65;;;-3.30;99.90;;;;;;4446596;28;658639;-61
2020/12/02 08:41:46;;;;;;;170.85;57.17;;;-3.30;99.90;;;;;;4456779;28;659491;-58
2020/12/02 08:44:34;;;;;;;128.97;45.40;;;-3.20;99.90;;;;;;4439496;28;659805;-58
2020/12/02 08:47:21;;;;;;;113.63;40.60;;;-3.10;99.90;;;;;;4444304;28;658877;-58
2020/12/02 08:50:08;;;;;;;62.37;21.60;;;-3.10;99.90;;;;;;4460878;28;660324;-59
2020/12/02 08:52:56;;;;;;;103.77;40.80;;;-3.00;99.90;;;;;;4447826;28;657613;-58
2020/12/02 08:55:44;;;;;;;85.67;27.30;;;-3.10;99.90;;;;;;4466508;28;659180;-58
2020/12/02 08:58:31;;;;;;;84.57;29.30;;;-3.10;99.90;;;;;;4444706;28;658443;-59
2020/12/02 09:01:19;;;;;;;83.53;28.23;;;-3.10;99.90;;;;;;4473121;28;658565;-58
2020/12/02 09:04:06;;;;;;;91.53;29.83;;;-3.10;99.90;;;;;;4447658;28;658192;-59
2020/12/02 09:06:53;;;;;;;79.23;27.77;;;-3.00;99.90;;;;;;4469522;28;657765;-58
2020/12/02 09:09:40;;;;;;;83.07;29.97;;;-3.10;99.90;;;;;;4433590;28;657509;-59
2020/12/02 09:12:27;;;;;;;75.00;28.33;;;-3.10;99.90;;;;;;4469462;28;658421;-58
2020/12/02 09:15:14;;;;;;;67.70;25.50;;;-3.00;99.90;;;;;;4449840;28;657671;-59
2020/12/02 09:18:04;;;;;;;68.23;24.30;;;-2.90;99.90;;;;;;4471995;28;657826;-59
2020/12/02 09:20:51;;;;;;;61.78;22.67;;;-2.80;99.90;;;;;;4449226;28;658978;-58
2020/12/02 09:23:38;;;;;;;76.15;27.17;;;-2.80;99.90;;;;;;4454743;28;658441;-59
2020/12/02 09:26:26;;;;;;;80.73;28.27;;;-2.90;99.90;;;;;;4406031;28;658348;-58
2020/12/02 09:29:15;;;;;;;81.33;29.73;;;-2.80;99.90;;;;;;4453105;28;658416;-59
2020/12/02 09:32:02;;;;;;;73.17;25.90;;;-2.80;99.90;;;;;;4444069;28;658287;-58
2020/12/02 09:34:50;;;;;;;72.50;26.07;;;-2.70;99.90;;;;;;4462586;28;658091;-59
2020/12/02 09:37:37;;;;;;;68.50;24.97;;;-2.70;99.90;;;;;;4466904;28;659249;-58
2020/12/02 09:40:25;;;;;;;73.57;26.42;;;-2.60;99.90;;;;;;4446487;28;658920;-59
2020/12/02 09:43:34;;;;;;;67.07;23.73;;;-2.60;99.90;;;;;;4461559;28;658932;-58
2020/12/02 09:46:21;;;;;;;67.47;24.00;;;-2.50;99.90;;;;;;4442543;28;658526;-59
2020/12/02 09:49:08;;;;;;;63.67;24.13;;;-2.40;99.90;;;;;;4466530;28;657683;-59
2020/12/02 09:52:09;;;;;;;66.40;24.13;;;-2.30;99.90;;;;;;4443523;28;657518;-59
2020/12/02 09:54:56;;;;;;;61.87;20.40;;;-2.20;99.90;;;;;;4423010;28;658753;-59
2020/12/02 09:57:43;;;;;;;53.50;18.50;;;-2.20;99.90;;;;;;4463276;28;658443;-59
2020/12/02 10:00:32;;;;;;;60.40;21.87;;;-2.40;99.90;;;;;;4443003;28;658485;-59
2020/12/02 10:03:46;;;;;;;66.40;23.70;;;-2.50;99.90;;;;;;4431569;28;657681;-60
2020/12/02 10:06:50;;;;;;;64.20;22.80;;;-2.50;99.90;;;;;;4447924;27;658101;-59
2020/12/02 10:10:08;;;;;;;64.73;20.83;;;-2.60;99.90;;;;;;4418485;28;658787;-59
2020/12/02 10:13:12;;;;;;;69.10;24.17;;;-2.40;99.90;;;;;;4418015;28;658197;-59
2020/12/02 10:16:04;;;;;;;77.90;26.13;;;-2.30;99.90;;;;;;4441693;28;657444;-59
2020/12/02 10:19:34;;;;;;;74.10;25.57;;;-2.20;99.90;;;;;;4445386;28;658453;-59
2020/12/02 10:22:57;;;;;;;70.03;23.70;;;-2.10;99.90;;;;;;4333291;28;658159;-59
2020/12/02 10:26:13;;;;;;;78.97;27.83;;;-1.90;99.90;;;;;;4270658;29;658690;-60
2020/12/02 10:29:01;;;;;;;74.83;26.63;;;-1.90;99.90;;;;;;4290913;29;658312;-59
2020/12/02 10:31:52;;;;;;;52.33;18.83;;;-1.80;99.90;;;;;;4312733;29;658837;-59
2020/12/02 10:34:42;;;;;;;64.72;24.00;;;-1.70;99.90;;;;;;4281659;29;658701;-60
2020/12/02 10:37:34;;;;;;;70.03;27.00;;;-1.60;99.90;;;;;;4282085;29;658041;-60
2020/12/02 10:40:21;;;;;;;75.27;27.37;;;-1.70;99.90;;;;;;4292115;29;657840;-59
2020/12/02 10:43:18;;;;;;;77.60;28.37;;;-1.70;99.90;;;;;;4312313;29;659272;-59
2020/12/02 10:46:05;;;;;;;86.77;30.37;;;-1.70;99.90;;;;;;4272174;29;657844;-60
2020/12/02 10:48:55;;;;;;;77.07;26.47;;;-1.70;99.90;;;;;;4304490;29;658956;-58
2020/12/02 10:51:42;;;;;;;95.10;32.93;;;-1.70;99.90;;;;;;4287105;29;658830;-59
2020/12/02 10:54:32;;;;;;;79.13;28.77;;;-1.60;99.90;;;;;;4310028;29;657533;-59
2020/12/02 10:57:21;;;;;;;87.97;30.08;;;-1.60;99.90;;;;;;4335524;28;658888;-60
2020/12/02 11:00:09;;;;;;;82.97;27.70;;;-1.70;99.90;;;;;;4377946;28;657794;-59
2020/12/02 11:03:17;;;;;;;89.63;28.33;;;-1.70;99.90;;;;;;4348572;28;658990;-58
2020/12/02 11:06:19;;;;;;;84.53;30.17;;;-1.70;99.90;;;;;;4424566;28;657762;-60
2020/12/02 11:09:25;;;;;;;73.57;27.93;;;-1.80;99.90;;;;;;4439308;28;657732;-58
2020/12/02 11:12:36;;;;;;;77.10;27.60;;;-1.70;99.90;;;;;;4437153;28;658199;-58
2020/12/02 11:15:31;;;;;;;88.63;30.47;;;-1.90;99.90;;;;;;4442324;28;657185;-58
2020/12/02 11:18:46;;;;;;;86.77;29.90;;;-2.00;99.90;;;;;;4438017;28;657482;-58
2020/12/02 11:21:41;;;;;;;83.13;28.63;;;-2.00;99.90;;;;;;4436695;28;657527;-58
2020/12/02 11:24:42;;;;;;;86.78;28.55;;;-2.00;99.90;;;;;;4435434;28;657661;-59
2020/12/02 11:27:32;;;;;;;111.97;35.25;;;-2.00;99.90;;;;;;4417885;28;657404;-60
2020/12/02 11:30:23;;;;;;;88.40;31.15;;;-2.00;99.90;;;;;;4447345;28;658675;-60
2020/12/02 11:33:46;;;;;;;72.03;26.80;;;-2.10;99.90;;;;;;4420466;28;657944;-60
2020/12/02 11:36:58;;;;;;;77.90;27.40;;;-2.10;99.90;;;;;;4442415;28;657573;-58
2020/12/02 11:40:04;;;;;;;85.80;28.67;;;-2.10;99.90;;;;;;4446348;28;657674;-59
2020/12/02 11:42:55;;;;;;;114.73;40.13;;;-2.00;99.90;;;;;;4422529;28;658573;-58
2020/12/02 11:45:43;;;;;;;78.93;28.85;;;-2.00;99.90;;;;;;4436545;28;659900;-59
2020/12/02 11:48:33;;;;;;;81.40;28.57;;;-2.10;99.90;;;;;;4443815;28;657827;-59
2020/12/02 11:51:26;;;;;;;80.17;27.20;;;-2.10;99.90;;;;;;4428397;28;657668;-59
2020/12/02 11:54:13;;;;;;;79.43;28.07;;;-2.10;99.90;;;;;;4438008;28;658196;-58
2020/12/02 11:57:03;;;;;;;78.30;27.63;;;-2.10;99.90;;;;;;4436963;28;657690;-58
2020/12/02 11:59:50;;;;;;;68.87;23.73;;;-2.00;99.90;;;;;;4444041;28;658468;-60
2020/12/02 12:02:45;;;;;;;72.93;25.97;;;-2.10;99.90;;;;;;4467772;28;658509;-59
2020/12/02 12:05:35;;;;;;;69.77;24.77;;;-2.00;99.90;;;;;;4438859;28;657989;-58
2020/12/02 12:08:27;;;;;;;64.90;22.23;;;-2.10;99.90;;;;;;4445585;28;658994;-59
2020/12/02 12:11:27;;;;;;;68.43;24.90;;;-2.10;99.90;;;;;;4424441;28;658232;-60
2020/12/02 12:14:18;;;;;;;69.10;23.15;;;-2.10;99.90;;;;;;4433175;28;657774;-60
2020/12/02 12:17:09;;;;;;;80.57;28.00;;;-2.30;99.90;;;;;;4433320;28;657520;-58
2020/12/02 12:20:02;;;;;;;69.63;22.27;;;-2.30;99.90;;;;;;4444982;28;658693;-59
2020/12/02 12:22:51;;;;;;;62.13;21.00;;;-2.50;99.90;;;;;;4445112;28;657594;-58
2020/12/02 12:25:40;;;;;;;59.10;21.65;;;-2.40;99.90;;;;;;4443226;28;657759;-58
2020/12/02 12:28:29;;;;;;;73.07;24.83;;;-2.50;99.90;;;;;;4439252;28;658896;-58
2020/12/02 12:31:22;;;;;;;67.97;26.17;;;-2.50;99.90;;;;;;4430393;28;659231;-58
2020/12/02 12:34:26;;;;;;;78.33;26.03;;;-2.50;99.90;;;;;;4431327;28;657780;-59
2020/12/02 12:37:20;;;;;;;65.77;24.00;;;-2.50;99.90;;;;;;4439474;27;657533;-58
2020/12/02 12:40:11;;;;;;;73.13;26.00;;;-2.60;99.90;;;;;;4413381;28;658205;-59
2020/12/02 12:42:58;;;;;;;60.20;20.80;;;-2.50;99.90;;;;;;4432568;28;659672;-58
2020/12/02 12:45:47;;;;;;;73.82;27.05;;;-2.40;99.90;;;;;;4446743;28;657467;-58
2020/12/02 12:48:36;;;;;;;86.23;30.97;;;-2.30;99.90;;;;;;4457190;28;658179;-60
2020/12/02 12:51:23;;;;;;;69.63;25.27;;;-2.50;99.90;;;;;;4455018;28;657818;-59
2020/12/02 12:54:13;;;;;;;66.40;23.73;;;-2.50;99.90;;;;;;4439052;28;657757;-59
2020/12/02 12:57:01;;;;;;;96.00;28.60;;;-2.60;99.90;;;;;;4438034;28;657797;-60
2020/12/02 12:59:49;;;;;;;70.97;23.93;;;-2.70;99.90;;;;;;4456054;28;657732;-59
2020/12/02 13:02:38;;;;;;;66.63;23.73;;;-2.80;99.90;;;;;;4435959;28;658178;-59
2020/12/02 13:05:25;;;;;;;53.73;18.23;;;-2.90;99.90;;;;;;4442919;28;657436;-59
2020/12/02 13:08:15;;;;;;;67.57;22.27;;;-2.90;99.90;;;;;;4461253;28;658198;-58
2020/12/02 13:11:05;;;;;;;71.25;22.75;;;-3.00;99.90;;;;;;4434128;28;658243;-59
2020/12/02 13:13:57;;;;;;;80.37;27.87;;;-3.00;99.90;;;;;;4432186;28;659305;-57
2020/12/02 13:16:47;;;;;;;92.83;36.00;;;-3.00;99.90;;;;;;4431430;28;657450;-60
2020/12/02 13:19:39;;;;;;;66.23;22.67;;;-3.00;99.90;;;;;;4450733;28;657426;-60
2020/12/02 13:22:32;;;;;;;77.45;29.17;;;-3.00;99.90;;;;;;4431373;28;658918;-59
2020/12/02 13:25:21;;;;;;;73.30;24.63;;;-3.00;99.90;;;;;;4432226;28;659694;-60
2020/12/02 13:28:10;;;;;;;78.20;26.43;;;-3.00;99.90;;;;;;4465559;28;658149;-58
2020/12/02 13:30:59;;;;;;;83.13;29.83;;;-3.10;99.90;;;;;;4435885;28;659318;-59
2020/12/02 13:33:48;;;;;;;82.43;29.30;;;-3.10;99.90;;;;;;4437156;28;658964;-59
2020/12/02 13:36:37;;;;;;;71.90;25.67;;;-3.10;99.90;;;;;;4447705;28;657465;-59
2020/12/02 13:39:25;;;;;;;79.70;28.50;;;-3.10;99.90;;;;;;4443830;28;659181;-60
2020/12/02 13:42:12;;;;;;;94.77;33.40;;;-3.00;99.90;;;;;;4459589;28;658065;-59
2020/12/02 13:45:02;;;;;;;76.47;26.63;;;-3.10;99.90;;;;;;4463477;28;657555;-59
2020/12/02 13:47:51;;;;;;;82.37;32.57;;;-3.10;99.90;;;;;;4439592;28;657449;-59
2020/12/02 13:50:39;;;;;;;92.57;31.70;;;-3.10;99.90;;;;;;4443457;28;657618;-60
2020/12/02 13:53:28;;;;;;;78.80;29.93;;;-3.20;99.90;;;;;;4441899;28;660212;-59
2020/12/02 13:56:19;;;;;;;66.72;22.23;;;-3.30;99.90;;;;;;4435520;28;657646;-58
2020/12/02 13:59:12;;;;;;;52.80;19.57;;;-3.30;99.90;;;;;;4436434;28;658457;-59
2020/12/02 14:02:15;;;;;;;60.03;21.42;;;-3.40;99.90;;;;;;4415764;28;657708;-59
2020/12/02 14:05:07;;;;;;;61.00;21.40;;;-3.50;99.90;;;;;;4398640;28;658187;-57
2020/12/02 14:07:55;;;;;;;62.13;23.13;;;-3.50;99.90;;;;;;4444275;28;657442;-60
2020/12/02 14:10:42;;;;;;;74.90;24.13;;;-3.70;99.90;;;;;;4457620;28;658881;-58